Time,TemperatureF,DewpointF,PressureIn,WindDirection,WindDirectionDegrees,WindSpeedMPH,WindSpeedGustMPH,Humidity,HourlyPrecipIn,Conditions,Clouds,dailyrainin,SoftwareType,DateUTC
2014-01-24 00:00:00,-1.6,-7.3,30.49,WNW,292,5.0,10.0,76,0.00,,,-99.99,WeatherLink 5.6,2014-01-24 05:00:00,
2014-01-24 00:30:00,-2.4,-7.8,30.50,NW,315,5.0,12.0,77,0.00,,,-99.99,WeatherLink 5.6,2014-01-24 05:30:00,
2014-01-24 01:00:00,-2.2,-7.6,30.51,NW,315,6.0,14.0,77,0.00,,,-99.99,WeatherLink 5.6,2014-01-24 06:00:00,
2014-01-24 01:30:00,-2.8,-8.0,30.52,NW,315,6.0,13.0,78,0.00,,,-99.99,WeatherLink 5.6,2014-01-24 06:30:00,
2014-01-24 02:00:00,-3.0,-7.6,30.53,NW,315,5.0,10.0,80,0.00,,,-99.99,WeatherLink 5.6,2014-01-24 07:00:00,
2014-01-24 02:30:00,-3.6,-8.0,30.55,NW,315,4.0,9.0,81,0.00,,,-99.99,WeatherLink 5.6,2014-01-24 07:30:00,
2014-01-24 03:00:00,-3.6,-8.0,30.57,NW,315,3.0,10.0,81,0.00,,,-99.99,WeatherLink 5.6,2014-01-24 08:00:00,
2014-01-24 03:30:00,-3.9,-8.3,30.57,NW,315,2.0,7.0,81,0.00,,,-99.99,WeatherLink 5.6,2014-01-24 08:30:00,
2014-01-24 04:00:00,-4.4,-8.8,30.57,NW,315,3.0,7.0,81,0.00,,,-99.99,WeatherLink 5.6,2014-01-24 09:00:00,
2014-01-24 04:30:00,-4.5,-8.6,30.58,WNW,292,2.0,7.0,82,0.00,,,-99.99,WeatherLink 5.6,2014-01-24 09:30:00,
2014-01-24 05:00:00,-4.3,-8.4,30.56,West,270,2.0,5.0,82,0.00,,,-99.99,WeatherLink 5.6,2014-01-24 10:00:00,
2014-01-24 05:30:00,-4.8,-8.9,30.58,WSW,247,2.0,5.0,82,0.00,,,-99.99,WeatherLink 5.6,2014-01-24 10:30:00,
2014-01-24 06:00:00,-4.8,-8.9,30.58,SW,225,3.0,6.0,82,0.00,,,-99.99,WeatherLink 5.6,2014-01-24 11:00:00,
2014-01-24 06:30:00,-4.7,-8.8,30.57,SSW,202,2.0,7.0,82,0.00,,,-99.99,WeatherLink 5.6,2014-01-24 11:30:00,
2014-01-24 07:00:00,-4.3,-8.7,30.56,SSW,202,4.0,9.0,81,0.00,,,-99.99,WeatherLink 5.6,2014-01-24 12:00:00,
2014-01-24 07:30:00,-4.1,-8.5,30.55,South,180,6.0,10.0,81,0.00,,,-99.99,WeatherLink 5.6,2014-01-24 12:30:00,
2014-01-24 08:00:00,-3.0,-7.6,30.53,South,180,5.0,12.0,80,0.00,,,-99.99,WeatherLink 5.6,2014-01-24 13:00:00,
2014-01-24 08:30:00,-1.5,-6.4,30.53,South,180,3.0,7.0,79,0.00,,,-99.99,WeatherLink 5.6,2014-01-24 13:30:00,
2014-01-24 09:00:00,1.1,-4.7,30.52,South,180,2.0,5.0,76,0.00,,,-99.99,WeatherLink 5.6,2014-01-24 14:00:00,
2014-01-24 09:30:00,2.1,-4.0,30.52,South,180,4.0,10.0,75,0.00,,,-99.99,WeatherLink 5.6,2014-01-24 14:30:00,
2014-01-24 10:00:00,3.1,-3.0,30.53,South,180,6.0,12.0,75,0.00,,,-99.99,WeatherLink 5.6,2014-01-24 15:00:00,
2014-01-24 10:30:00,4.1,-2.4,30.54,South,180,9.0,14.0,74,0.00,,,-99.99,WeatherLink 5.6,2014-01-24 15:30:00,
2014-01-24 11:00:00,4.9,-1.6,30.53,South,180,9.0,18.0,74,0.00,,,-99.99,WeatherLink 5.6,2014-01-24 16:00:00,
2014-01-24 11:30:00,6.3,-0.5,30.53,South,180,10.0,16.0,73,0.00,,,-99.99,WeatherLink 5.6,2014-01-24 16:30:00,
2014-01-24 12:00:00,7.1,-0.6,30.52,South,180,10.0,19.0,70,0.00,,,-99.99,WeatherLink 5.6,2014-01-24 17:00:00,
2014-01-24 12:30:00,8.4,0.6,30.50,South,180,11.0,19.0,70,0.00,,,-99.99,WeatherLink 5.6,2014-01-24 17:30:00,
2014-01-24 13:00:00,9.0,0.3,30.47,South,180,10.0,18.0,67,0.00,,,-99.99,WeatherLink 5.6,2014-01-24 18:00:00,
2014-01-24 13:30:00,10.3,0.2,30.44,South,180,9.0,19.0,63,0.00,,,-99.99,WeatherLink 5.6,2014-01-24 18:30:00,
2014-01-24 14:00:00,11.1,-0.1,30.40,South,180,10.0,20.0,60,0.00,,,-99.99,WeatherLink 5.6,2014-01-24 19:00:00,
2014-01-24 14:30:00,11.8,-0.9,30.38,South,180,11.0,20.0,56,0.00,,,-99.99,WeatherLink 5.6,2014-01-24 19:30:00,
2014-01-24 15:00:00,12.7,0.3,30.35,South,180,11.0,22.0,57,0.00,,,-99.99,WeatherLink 5.6,2014-01-24 20:00:00,
2014-01-24 15:30:00,13.4,-1.0,30.33,South,180,11.0,22.0,52,0.00,,,-99.99,WeatherLink 5.6,2014-01-24 20:30:00,
2014-01-24 16:00:00,13.9,-0.9,30.32,South,180,12.0,23.0,51,0.00,,,-99.99,WeatherLink 5.6,2014-01-24 21:00:00,
2014-01-24 16:30:00,13.8,-1.4,30.31,South,180,12.0,21.0,50,0.00,,,-99.99,WeatherLink 5.6,2014-01-24 21:30:00,
2014-01-24 17:00:00,13.6,-2.5,30.29,South,180,12.0,22.0,48,0.00,,,-99.99,WeatherLink 5.6,2014-01-24 22:00:00,
2014-01-24 17:30:00,13.2,-2.4,30.27,South,180,14.0,27.0,49,0.00,,,-99.99,WeatherLink 5.6,2014-01-24 22:30:00,
2014-01-24 18:00:00,13.0,-2.6,30.26,South,180,14.0,25.0,49,0.00,,,-99.99,WeatherLink 5.6,2014-01-24 23:00:00,
2014-01-24 18:30:00,13.0,-2.6,30.25,South,180,16.0,28.0,49,0.00,,,-99.99,WeatherLink 5.6,2014-01-24 23:30:00,
2014-01-24 19:00:00,12.8,-3.2,30.22,South,180,17.0,28.0,48,0.00,,,-99.99,WeatherLink 5.6,2014-01-25 00:00:00,
2014-01-24 19:30:00,12.7,-3.3,30.18,South,180,19.0,33.0,48,0.00,,,-99.99,WeatherLink 5.6,2014-01-25 00:30:00,
2014-01-24 20:00:00,12.7,-3.3,30.15,South,180,18.0,33.0,48,0.00,,,-99.99,WeatherLink 5.6,2014-01-25 01:00:00,
2014-01-24 20:30:00,12.9,-2.7,30.12,South,180,20.0,36.0,49,0.00,,,-99.99,WeatherLink 5.6,2014-01-25 01:30:00,
2014-01-24 21:00:00,12.7,-2.5,30.11,South,180,21.0,37.0,50,0.00,,,-99.99,WeatherLink 5.6,2014-01-25 02:00:00,
2014-01-24 21:30:00,12.7,-1.6,30.10,South,180,21.0,33.0,52,0.00,,,-99.99,WeatherLink 5.6,2014-01-25 02:30:00,
2014-01-24 22:00:00,12.6,-0.9,30.08,South,180,19.0,33.0,54,0.00,,,-99.99,WeatherLink 5.6,2014-01-25 03:00:00,
2014-01-24 22:30:00,13.2,-0.4,30.06,South,180,21.0,38.0,54,0.00,,,-99.99,WeatherLink 5.6,2014-01-25 03:30:00,
2014-01-24 23:00:00,12.7,-1.2,30.04,South,180,20.0,32.0,53,0.00,,,-99.99,WeatherLink 5.6,2014-01-25 04:00:00,
2014-01-24 23:30:00,12.7,-1.6,30.02,South,180,20.0,33.0,52,0.00,,,-99.99,WeatherLink 5.6,2014-01-25 04:30:00,